createdAt,value
2017-11-10T00:00:20.401Z,95.82
2017-11-10T00:02:47.963Z,102.62
2017-11-10T00:05:15.529Z,107.47
2017-11-10T00:07:43.101Z,105.75
2017-11-10T00:10:10.671Z,110.15
2017-11-10T00:12:39.025Z,112.22
2017-11-10T00:15:06.601Z,111.03
2017-11-10T00:17:35.015Z,111.50
2017-11-10T00:20:02.576Z,105.65
2017-11-10T00:22:30.149Z,122.32
2017-11-10T00:24:57.709Z,117.60
2017-11-10T00:27:25.252Z,105.85
2017-11-10T00:29:52.817Z,106.45
2017-11-10T00:32:20.359Z,105.68
2017-11-10T00:34:47.916Z,89.87
2017-11-10T00:37:15.487Z,94.68
2017-11-10T00:39:43.037Z,108.30
2017-11-10T00:42:10.604Z,86.15
2017-11-10T00:44:38.216Z,86.55
2017-11-10T00:47:06.554Z,90.62
2017-11-10T00:49:34.127Z,73.60
2017-11-10T00:52:01.665Z,73.07
2017-11-10T00:54:29.224Z,74.93
2017-11-10T00:56:56.779Z,54.08
2017-11-10T00:59:24.335Z,66.60
2017-11-10T01:01:51.921Z,60.75
2017-11-10T01:04:19.459Z,67.82
2017-11-10T01:06:47.054Z,57.28
2017-11-10T01:09:14.614Z,45.65
2017-11-10T01:11:42.177Z,41.47
2017-11-10T01:14:09.748Z,44.30
2017-11-10T01:16:37.303Z,50.40
2017-11-10T01:19:04.902Z,47.72
2017-11-10T01:21:32.473Z,42.90
2017-11-10T01:24:00.046Z,41.70
2017-11-10T01:26:27.623Z,36.97
2017-11-10T01:28:55.169Z,37.53
2017-11-10T01:31:22.747Z,33.38
2017-11-10T01:33:50.299Z,30.62
2017-11-10T01:36:17.852Z,34.38
2017-11-10T01:38:45.410Z,27.08
2017-11-10T01:41:12.964Z,27.02
2017-11-10T01:43:40.543Z,30.33
2017-11-10T01:46:08.095Z,24.65
2017-11-10T01:48:41.501Z,23.08
2017-11-10T01:51:09.041Z,25.45
2017-11-10T01:53:36.606Z,29.83
2017-11-10T01:56:04.183Z,27.98
2017-11-10T01:58:31.784Z,29.85
2017-11-10T02:00:59.368Z,25.65
2017-11-10T02:03:26.928Z,32.00
2017-11-10T02:05:54.496Z,28.73
2017-11-10T02:08:22.069Z,27.25
2017-11-10T02:10:49.637Z,25.70
2017-11-10T02:13:17.219Z,26.90
2017-11-10T02:15:44.783Z,27.90
2017-11-10T02:18:13.385Z,23.17
2017-11-10T02:20:40.946Z,21.90
2017-11-10T02:23:09.267Z,20.70
2017-11-10T02:25:36.834Z,23.27
2017-11-10T02:28:04.401Z,24.08
2017-11-10T02:30:31.965Z,24.33
2017-11-10T02:32:59.523Z,23.35
2017-11-10T02:35:28.579Z,25.02
2017-11-10T02:37:56.133Z,20.70
2017-11-10T02:40:23.687Z,18.80
2017-11-10T02:42:51.274Z,18.55
2017-11-10T02:45:18.813Z,20.73
2017-11-10T02:47:46.368Z,20.45
2017-11-10T02:50:13.920Z,19.20
2017-11-10T02:52:41.512Z,17.05
2017-11-10T02:55:09.079Z,23.73
2017-11-10T02:57:36.640Z,20.48
2017-11-10T03:00:04.226Z,16.02
2017-11-10T03:02:32.562Z,17.83
2017-11-10T03:05:00.138Z,18.15
2017-11-10T03:07:27.692Z,15.27
2017-11-10T03:09:55.293Z,16.90
2017-11-10T03:12:22.870Z,19.75
2017-11-10T03:14:50.459Z,17.75
2017-11-10T03:17:18.042Z,16.85
2017-11-10T03:19:45.607Z,15.98
2017-11-10T03:22:13.174Z,19.37
2017-11-10T03:24:42.228Z,16.17
2017-11-10T03:27:09.802Z,16.52
2017-11-10T03:29:37.391Z,15.70
2017-11-10T03:32:04.948Z,13.95
2017-11-10T03:34:32.508Z,13.90
2017-11-10T03:37:00.080Z,14.70
2017-11-10T03:39:28.413Z,18.20
2017-11-10T03:41:55.984Z,14.82
2017-11-10T03:44:23.554Z,18.30
2017-11-10T03:46:51.145Z,15.32
2017-11-10T03:49:19.474Z,16.15
2017-11-10T03:51:47.013Z,13.23
2017-11-10T03:54:14.573Z,14.80
2017-11-10T03:56:42.143Z,16.67
2017-11-10T03:59:09.676Z,15.25
2017-11-10T04:01:37.254Z,13.23
2017-11-10T04:04:04.825Z,16.02
2017-11-10T04:06:32.403Z,17.15
2017-11-10T04:08:59.941Z,19.58
2017-11-10T04:11:27.491Z,27.20
2017-11-10T04:13:55.080Z,22.30
2017-11-10T04:16:22.622Z,22.62
2017-11-10T04:18:50.186Z,23.92
2017-11-10T04:21:17.820Z,21.45
2017-11-10T04:23:45.392Z,21.17
2017-11-10T04:26:12.966Z,17.70
2017-11-10T04:28:40.540Z,19.65
2017-11-10T04:31:08.101Z,14.25
2017-11-10T04:33:35.686Z,20.20
2017-11-10T04:36:04.000Z,13.65
2017-11-10T04:38:31.590Z,17.95
2017-11-10T04:40:59.127Z,14.57
2017-11-10T04:43:26.708Z,14.77
2017-11-10T04:45:54.263Z,13.23
2017-11-10T04:48:21.798Z,9.98
2017-11-10T04:50:49.368Z,10.85
2017-11-10T04:53:16.933Z,9.95
2017-11-10T04:55:44.502Z,12.60
2017-11-10T04:58:12.055Z,10.85
2017-11-10T05:00:39.619Z,7.85
2017-11-10T05:03:07.170Z,9.63
2017-11-10T05:05:34.762Z,7.65
2017-11-10T05:08:03.075Z,9.40
2017-11-10T05:10:30.639Z,10.27
2017-11-10T05:12:58.215Z,10.13
2017-11-10T05:15:25.782Z,11.02
2017-11-10T05:17:53.373Z,12.50
2017-11-10T05:20:21.696Z,12.35
2017-11-10T05:22:49.242Z,11.82
2017-11-10T05:25:16.824Z,14.63
2017-11-10T05:27:44.382Z,12.27
2017-11-10T05:30:11.982Z,15.63
2017-11-10T05:32:39.540Z,15.95
2017-11-10T05:35:07.095Z,19.48
2017-11-10T05:37:34.649Z,21.45
2017-11-10T05:40:02.964Z,22.23
2017-11-10T05:42:30.533Z,18.58
2017-11-10T05:44:58.069Z,17.73
2017-11-10T05:47:26.373Z,21.75
2017-11-10T05:49:53.944Z,22.90
2017-11-10T05:52:21.499Z,20.30
2017-11-10T05:54:49.098Z,24.80
2017-11-10T05:57:16.641Z,23.50
2017-11-10T05:59:44.176Z,26.08
2017-11-10T06:02:11.748Z,23.98
2017-11-10T06:04:39.304Z,25.33
2017-11-10T06:07:06.888Z,25.85
2017-11-10T06:09:34.475Z,27.30
2017-11-10T06:12:02.781Z,22.00
2017-11-10T06:14:30.370Z,26.37
2017-11-10T06:16:57.914Z,26.02
2017-11-10T06:19:25.471Z,26.62
2017-11-10T06:21:53.023Z,30.42
2017-11-10T06:24:20.599Z,25.20
2017-11-10T06:26:48.165Z,34.25
2017-11-10T06:29:15.728Z,29.60
2017-11-10T06:31:43.322Z,34.38
2017-11-10T06:34:11.648Z,34.22
2017-11-10T06:36:39.225Z,35.40
2017-11-10T06:39:06.775Z,30.60
2017-11-10T06:41:34.332Z,32.40
2017-11-10T06:44:01.917Z,36.60
2017-11-10T06:46:30.239Z,38.47
2017-11-10T06:48:57.813Z,34.45
2017-11-10T06:51:25.373Z,42.40
2017-11-10T06:53:52.949Z,38.60
2017-11-10T06:56:20.513Z,36.50
2017-11-10T06:58:48.175Z,34.00
2017-11-10T07:01:15.774Z,35.83
2017-11-10T07:03:44.095Z,35.83
2017-11-10T07:06:11.675Z,38.33
2017-11-10T07:08:39.257Z,40.50
2017-11-10T07:11:06.807Z,36.90
2017-11-10T07:13:34.384Z,34.05
2017-11-10T07:16:01.940Z,37.35
2017-11-10T07:18:30.241Z,37.03
2017-11-10T07:20:58.598Z,39.03
2017-11-10T07:23:26.156Z,39.83
2017-11-10T07:25:53.744Z,34.05
2017-11-10T07:28:21.304Z,35.57
2017-11-10T07:30:48.849Z,35.08
2017-11-10T07:33:17.206Z,34.35
2017-11-10T07:35:44.798Z,31.67
2017-11-10T07:38:12.393Z,31.27
2017-11-10T07:40:39.950Z,38.23
2017-11-10T07:43:07.504Z,28.85
2017-11-10T07:45:35.082Z,30.75
2017-11-10T07:48:02.644Z,36.27
2017-11-10T07:50:30.295Z,35.17
2017-11-10T07:52:57.852Z,34.83
2017-11-10T07:55:25.450Z,32.95
2017-11-10T07:57:52.994Z,32.28
2017-11-10T08:00:20.554Z,36.85
2017-11-10T08:02:48.118Z,29.47
2017-11-10T08:05:15.704Z,36.40
2017-11-10T08:07:43.720Z,31.27
2017-11-10T08:10:11.368Z,34.40
2017-11-10T08:12:38.966Z,38.70
2017-11-10T08:15:06.516Z,41.10
2017-11-10T08:17:34.099Z,39.30
2017-11-10T08:20:02.426Z,31.85
2017-11-10T08:22:29.994Z,41.70
2017-11-10T08:24:57.561Z,46.92
2017-11-10T08:27:25.124Z,41.25
2017-11-10T08:29:52.695Z,40.78
2017-11-10T08:32:20.244Z,43.23
2017-11-10T08:34:47.795Z,36.03
2017-11-10T08:37:15.367Z,36.10
2017-11-10T08:39:42.915Z,37.17
2017-11-10T08:42:10.514Z,34.30
2017-11-10T08:44:38.954Z,33.30
2017-11-10T08:47:06.484Z,37.03
2017-11-10T08:49:34.054Z,30.33
2017-11-10T08:52:01.627Z,30.80
2017-11-10T08:54:29.197Z,27.17
2017-11-10T08:56:56.737Z,24.90
2017-11-10T08:59:24.309Z,26.17
2017-11-10T09:01:51.899Z,19.42
2017-11-10T09:04:19.456Z,16.15
2017-11-10T09:06:47.021Z,21.87
2017-11-10T09:09:14.596Z,13.80
2017-11-10T09:11:42.925Z,22.33
2017-11-10T09:14:10.497Z,31.13
2017-11-10T09:16:38.056Z,17.30
2017-11-10T09:19:05.637Z,15.70
2017-11-10T09:21:34.011Z,16.75
2017-11-10T09:24:01.600Z,12.07
2017-11-10T09:26:29.233Z,12.90
2017-11-10T09:29:10.445Z,38.00
2017-11-10T09:31:50.457Z,15.30
2017-11-10T09:34:23.644Z,23.97
2017-11-10T09:36:54.908Z,17.47
2017-11-10T09:42:34.211Z,11.75
2017-11-10T09:45:07.532Z,15.98
2017-11-10T09:47:40.805Z,16.33
2017-11-10T09:53:20.043Z,10.10
2017-11-10T09:55:48.087Z,15.02
2017-11-10T09:58:17.337Z,14.55
2017-11-10T10:00:50.698Z,16.92
2017-11-10T10:06:30.592Z,13.33
2017-11-10T10:09:04.000Z,17.08
2017-11-10T10:14:39.862Z,16.50
2017-11-10T10:17:22.293Z,15.07
2017-11-10T10:19:54.530Z,10.80
2017-11-10T10:22:24.894Z,9.10
2017-11-10T10:24:52.482Z,11.80
2017-11-10T10:27:20.042Z,11.30
2017-11-10T10:29:48.379Z,14.33
2017-11-10T10:32:15.910Z,9.67
2017-11-10T10:34:43.449Z,9.63
2017-11-10T10:37:11.014Z,10.30
2017-11-10T10:39:38.572Z,8.53
2017-11-10T10:42:06.130Z,9.50
2017-11-10T10:44:33.670Z,7.57
2017-11-10T10:47:01.973Z,8.53
2017-11-10T10:49:29.550Z,8.87
2017-11-10T10:51:57.084Z,7.30
2017-11-10T10:54:24.663Z,6.50
2017-11-10T10:56:52.198Z,18.60
2017-11-10T10:59:19.859Z,8.50
2017-11-10T11:01:47.438Z,16.40
2017-11-10T11:04:14.992Z,9.30
2017-11-10T11:06:42.586Z,11.93
2017-11-10T11:09:10.138Z,9.87
2017-11-10T11:11:37.699Z,11.33
2017-11-10T11:14:05.290Z,13.43
2017-11-10T11:16:33.594Z,16.47
2017-11-10T11:19:01.182Z,15.57
2017-11-10T11:21:28.740Z,18.67
2017-11-10T11:23:56.324Z,14.25
2017-11-10T11:26:23.880Z,14.10
2017-11-10T11:28:51.413Z,13.20
2017-11-10T11:31:18.984Z,15.10
2017-11-10T11:33:46.537Z,13.10
2017-11-10T11:36:14.119Z,16.83
2017-11-10T11:38:41.686Z,15.00
2017-11-10T11:41:09.232Z,13.40
2017-11-10T11:43:36.814Z,17.07
2017-11-10T11:46:04.363Z,16.13
2017-11-10T11:48:31.974Z,22.83
2017-11-10T11:50:59.546Z,13.10
2017-11-10T11:53:27.117Z,13.87
2017-11-10T11:55:54.912Z,16.90
2017-11-10T11:58:22.449Z,14.20
2017-11-10T12:00:50.028Z,18.13
2017-11-10T12:03:17.583Z,21.00
2017-11-10T12:05:45.121Z,20.07
2017-11-10T12:08:12.693Z,17.53
2017-11-10T12:10:40.266Z,18.93
2017-11-10T12:13:07.943Z,16.57
2017-11-10T12:15:35.495Z,15.97
2017-11-10T12:18:03.062Z,13.90
2017-11-10T12:20:30.621Z,21.00
2017-11-10T12:22:58.201Z,17.27
2017-11-10T12:25:26.547Z,17.83
2017-11-10T12:27:54.099Z,20.73
2017-11-10T12:30:21.688Z,23.80
2017-11-10T12:32:50.038Z,23.47
2017-11-10T12:35:17.672Z,24.60
2017-11-10T12:37:45.259Z,27.52
2017-11-10T12:40:12.812Z,22.30
2017-11-10T12:42:40.366Z,22.67
2017-11-10T12:45:07.940Z,24.63
2017-11-10T12:47:35.515Z,28.00
2017-11-10T12:50:03.871Z,18.08
2017-11-10T12:52:32.210Z,20.75
2017-11-10T12:54:59.749Z,21.45
2017-11-10T12:57:28.073Z,17.97
2017-11-10T12:59:55.623Z,13.27
2017-11-10T13:02:23.181Z,11.05
2017-11-10T13:04:50.744Z,14.20
2017-11-10T13:07:18.298Z,13.60
2017-11-10T13:09:45.886Z,181.00
2017-11-10T13:12:14.012Z,17.77
2017-11-10T13:14:41.573Z,20.83
2017-11-10T13:17:09.816Z,15.82
2017-11-10T13:19:38.142Z,22.70
2017-11-10T13:22:06.532Z,27.10
2017-11-10T13:24:35.259Z,28.75
2017-11-10T13:27:04.682Z,39.45
2017-11-10T13:29:32.575Z,26.08
2017-11-10T13:32:00.954Z,23.80
2017-11-10T13:34:29.058Z,29.52
2017-11-10T13:36:57.197Z,31.50
2017-11-10T13:39:24.840Z,23.30
2017-11-10T13:41:52.413Z,21.90
2017-11-10T13:44:20.593Z,27.70
2017-11-10T13:46:48.206Z,30.00
2017-11-10T13:49:16.560Z,29.80
2017-11-10T13:51:44.202Z,24.50
2017-11-10T13:54:11.785Z,25.40
2017-11-10T13:56:39.421Z,27.10
2017-11-10T13:59:06.993Z,31.93
2017-11-10T14:01:34.617Z,19.13
2017-11-10T14:04:02.211Z,22.50
2017-11-10T14:06:29.809Z,30.10
2017-11-10T14:08:57.427Z,24.87
2017-11-10T14:11:24.987Z,21.57
2017-11-10T14:13:52.572Z,16.93
2017-11-10T14:16:20.900Z,24.20
2017-11-10T14:18:48.461Z,17.40
2017-11-10T14:21:16.027Z,22.50
2017-11-10T14:23:43.561Z,35.07
2017-11-10T14:26:11.154Z,35.37
2017-11-10T14:28:38.690Z,21.53
2017-11-10T14:31:06.236Z,25.23
2017-11-10T14:33:33.804Z,28.90
2017-11-10T14:36:01.374Z,41.07
2017-11-10T14:38:28.959Z,27.63
2017-11-10T14:40:56.602Z,34.07
2017-11-10T14:43:24.178Z,36.22
2017-11-10T14:45:51.733Z,61.87
2017-11-10T14:48:19.306Z,48.27
2017-11-10T14:50:46.902Z,43.13
2017-11-10T14:53:15.228Z,37.67
2017-11-10T14:55:42.883Z,57.30
2017-11-10T14:58:10.453Z,44.10
2017-11-10T15:00:38.021Z,50.50
2017-11-10T15:03:05.596Z,55.50
2017-11-10T15:05:33.151Z,38.63
2017-11-10T15:08:01.505Z,44.70
2017-11-10T15:10:29.847Z,18.17
2017-11-10T15:12:57.385Z,8.70
2017-11-10T15:15:25.715Z,15.85
2017-11-10T15:17:53.273Z,12.82
2017-11-10T15:20:20.854Z,16.92
2017-11-10T15:22:49.901Z,22.40
2017-11-10T15:25:17.472Z,13.77
2017-11-10T15:27:45.025Z,11.77
2017-11-10T15:30:12.603Z,16.48
2017-11-10T15:32:40.167Z,9.57
2017-11-10T15:35:07.822Z,7.00
2017-11-10T15:37:35.420Z,22.13
2017-11-10T15:40:03.759Z,12.07
2017-11-10T15:42:31.338Z,10.48
2017-11-10T15:44:58.889Z,5.60
2017-11-10T15:47:26.456Z,12.60
2017-11-10T15:49:54.027Z,6.30
2017-11-10T15:52:21.584Z,18.15
2017-11-10T15:54:49.159Z,8.90
2017-11-10T15:57:16.707Z,12.87
2017-11-10T15:59:44.245Z,16.08
2017-11-10T16:02:11.821Z,11.53
2017-11-10T16:04:39.380Z,13.13
2017-11-10T16:07:06.969Z,16.00
2017-11-10T16:09:35.310Z,16.02
2017-11-10T16:12:02.948Z,15.93
2017-11-10T16:14:30.516Z,15.47
2017-11-10T16:16:58.103Z,11.33
2017-11-10T16:19:25.672Z,6.47
2017-11-10T16:21:53.992Z,8.37
2017-11-10T16:24:21.590Z,6.53
2017-11-10T16:26:49.137Z,12.90
2017-11-10T16:29:16.706Z,13.80
2017-11-10T16:31:44.275Z,27.45
2017-11-10T16:34:11.831Z,21.42
2017-11-10T16:36:39.411Z,15.70
2017-11-10T16:39:07.845Z,6.95
2017-11-10T16:41:35.394Z,9.02
2017-11-10T16:44:02.980Z,12.37
2017-11-10T16:46:30.544Z,17.48
2017-11-10T16:48:58.271Z,11.68
2017-11-10T16:51:25.816Z,7.37
2017-11-10T16:53:53.368Z,16.45
2017-11-10T16:56:20.940Z,16.58
2017-11-10T16:58:48.508Z,11.80
2017-11-10T17:01:16.073Z,12.95
2017-11-10T17:03:43.642Z,9.38
2017-11-10T17:06:11.205Z,17.25
2017-11-10T17:08:38.771Z,16.05
2017-11-10T17:11:06.336Z,8.68
2017-11-10T17:13:34.709Z,10.13
2017-11-10T17:16:02.269Z,13.43
2017-11-10T17:18:29.821Z,16.25
2017-11-10T17:20:57.373Z,6.75
2017-11-10T17:23:24.926Z,6.25
2017-11-10T17:25:52.511Z,16.90
2017-11-10T17:28:20.046Z,5.68
2017-11-10T17:30:47.606Z,9.23
2017-11-10T17:33:15.189Z,17.30
2017-11-10T17:35:42.827Z,9.25
2017-11-10T17:38:10.403Z,8.13
2017-11-10T17:40:37.978Z,33.95
2017-11-10T17:43:07.247Z,12.10
2017-11-10T17:45:34.820Z,9.07
2017-11-10T17:48:02.381Z,9.40
2017-11-10T17:50:29.949Z,15.50
2017-11-10T17:52:57.583Z,14.40
2017-11-10T17:55:25.113Z,14.80
2017-11-10T17:57:52.675Z,6.55
2017-11-10T18:00:20.244Z,7.43
2017-11-10T18:02:47.932Z,12.88
2017-11-10T18:05:15.594Z,8.63
2017-11-10T18:07:43.145Z,9.98
2017-11-10T18:10:10.732Z,6.18
2017-11-10T18:12:38.289Z,10.40
2017-11-10T18:15:05.844Z,10.82
2017-11-10T18:17:33.420Z,11.27
2017-11-10T18:20:01.305Z,12.05
2017-11-10T18:22:29.629Z,6.47
2017-11-10T18:24:57.189Z,15.35
2017-11-10T18:27:24.731Z,14.25
2017-11-10T18:29:52.290Z,9.05
2017-11-10T18:32:19.878Z,12.77
2017-11-10T18:34:47.436Z,34.08
2017-11-10T18:37:14.977Z,23.42
2017-11-10T18:39:42.539Z,12.93
2017-11-10T18:42:10.098Z,29.17
2017-11-10T18:44:37.676Z,15.95
2017-11-10T18:47:05.224Z,29.27
2017-11-10T18:49:32.894Z,16.92
2017-11-10T18:52:00.470Z,12.02
2017-11-10T18:54:28.019Z,34.88
2017-11-10T18:56:55.591Z,20.98
2017-11-10T18:59:23.226Z,26.50
2017-11-10T19:01:50.866Z,16.87
2017-11-10T19:04:18.458Z,31.85
2017-11-10T19:06:45.993Z,21.17
2017-11-10T19:09:13.576Z,23.77
2017-11-10T19:11:41.166Z,16.70
2017-11-10T19:14:09.507Z,24.87
2017-11-10T19:16:37.088Z,16.37
2017-11-10T19:19:04.644Z,20.15
2017-11-10T19:21:32.179Z,17.60
2017-11-10T19:23:59.763Z,32.55
2017-11-10T19:26:27.349Z,20.20
2017-11-10T19:28:55.664Z,28.48
2017-11-10T19:31:23.211Z,23.70
2017-11-10T19:33:50.771Z,19.85
2017-11-10T19:36:18.332Z,34.80
2017-11-10T19:38:45.924Z,22.17
2017-11-10T19:41:13.479Z,24.05
2017-11-10T19:43:41.036Z,22.75
2017-11-10T19:46:08.599Z,30.45
2017-11-10T19:48:36.186Z,38.97
2017-11-10T19:51:03.747Z,32.15
2017-11-10T19:53:31.306Z,40.30
2017-11-10T19:55:58.898Z,26.98
2017-11-10T19:58:26.467Z,22.27
2017-11-10T20:00:54.042Z,31.95
2017-11-10T20:03:21.606Z,27.13
2017-11-10T20:05:49.176Z,26.05
2017-11-10T20:08:16.746Z,25.20
2017-11-10T20:10:44.337Z,33.83
2017-11-10T20:13:12.647Z,29.80
2017-11-10T20:15:40.227Z,20.27
2017-11-10T20:18:07.813Z,34.28
2017-11-10T20:20:35.382Z,19.73
2017-11-10T20:23:02.922Z,24.05
2017-11-10T20:25:30.481Z,13.57
2017-11-10T20:27:58.021Z,75.30
2017-11-10T20:30:25.607Z,24.35
2017-11-10T20:32:53.180Z,19.55
2017-11-10T20:35:21.478Z,31.85
2017-11-10T20:37:49.833Z,26.05
2017-11-10T20:40:17.472Z,22.45
2017-11-10T20:42:45.028Z,25.70
2017-11-10T20:45:12.606Z,20.90
2017-11-10T20:47:40.200Z,27.05
2017-11-10T20:50:07.798Z,27.33
2017-11-10T20:52:35.365Z,19.55
2017-11-10T20:55:02.930Z,17.50
2017-11-10T20:57:30.499Z,22.37
2017-11-10T20:59:58.053Z,28.30
2017-11-10T21:02:25.670Z,37.28
2017-11-10T21:04:53.351Z,17.60
2017-11-10T21:07:20.908Z,29.75
2017-11-10T21:09:48.485Z,26.90
2017-11-10T21:12:16.046Z,27.65
2017-11-10T21:14:43.687Z,18.50
2017-11-10T21:17:11.253Z,22.25
2017-11-10T21:19:38.832Z,23.50
2017-11-10T21:22:06.399Z,23.80
2017-11-10T21:24:33.949Z,23.10
2017-11-10T21:27:01.502Z,32.03
2017-11-10T21:29:29.096Z,21.20
2017-11-10T21:31:57.426Z,20.00
2017-11-10T21:34:24.976Z,26.10
2017-11-10T21:36:52.558Z,23.70
2017-11-10T21:39:20.123Z,38.00
2017-11-10T21:41:47.664Z,9.82
2017-11-10T21:44:15.227Z,23.50
2017-11-10T21:46:42.777Z,25.85
2017-11-10T21:49:10.328Z,27.27
2017-11-10T21:51:37.923Z,40.08
2017-11-10T21:54:05.472Z,24.35
2017-11-10T21:56:33.019Z,38.38
2017-11-10T21:59:00.577Z,20.08
2017-11-10T22:01:28.141Z,22.58
2017-11-10T22:03:55.688Z,16.62
2017-11-10T22:06:23.256Z,28.85
2017-11-10T22:08:50.798Z,26.37
2017-11-10T22:11:18.394Z,24.92
2017-11-10T22:13:47.456Z,28.12
2017-11-10T22:16:14.986Z,19.58
2017-11-10T22:18:43.324Z,20.50
2017-11-10T22:21:10.853Z,23.92
2017-11-10T22:23:38.412Z,20.10
2017-11-10T22:26:06.015Z,22.70
2017-11-10T22:28:33.591Z,15.85
2017-11-10T22:31:01.908Z,22.50
2017-11-10T22:33:29.487Z,14.95
2017-11-10T22:35:57.021Z,30.95
2017-11-10T22:38:24.592Z,25.62
2017-11-10T22:40:52.149Z,24.67
2017-11-10T22:43:19.713Z,16.92
2017-11-10T22:45:47.292Z,13.98
2017-11-10T22:48:14.835Z,37.13
2017-11-10T22:50:42.402Z,18.25
2017-11-10T22:53:09.958Z,21.17
2017-11-10T22:55:37.518Z,31.12
2017-11-10T22:58:05.085Z,26.75
2017-11-10T23:00:32.631Z,17.20
2017-11-10T23:03:00.189Z,29.42
2017-11-10T23:05:27.751Z,21.80
2017-11-10T23:07:55.285Z,12.90
2017-11-10T23:10:22.863Z,23.50
2017-11-10T23:12:50.394Z,19.02
2017-11-10T23:15:17.936Z,21.10
2017-11-10T23:17:46.289Z,26.55
2017-11-10T23:20:13.840Z,23.95
2017-11-10T23:22:41.411Z,19.08
2017-11-10T23:25:08.959Z,28.92
2017-11-10T23:27:36.526Z,19.33
2017-11-10T23:30:04.068Z,31.42
2017-11-10T23:32:31.602Z,23.00
2017-11-10T23:34:59.163Z,21.10
2017-11-10T23:37:26.715Z,38.80
2017-11-10T23:39:54.274Z,15.57
2017-11-10T23:42:21.824Z,21.02
2017-11-10T23:44:49.378Z,16.75
2017-11-10T23:47:16.923Z,32.33
2017-11-10T23:49:45.274Z,24.52
2017-11-10T23:52:12.840Z,18.00
2017-11-10T23:54:40.388Z,29.08
2017-11-10T23:57:07.955Z,21.67
2017-11-10T23:59:36.280Z,21.62
